Time;durP1;ratioP1;P1;durP2;ratioP2;P2;SDS_P1;SDS_P2;PMS_P1;PMS_P2;Temp;Humidity;BMP_temperature;BMP_pressure;BME280_temperature;BME280_humidity;BME280_pressure;Samples;Min_cycle;Max_cycle;Signal;HPM_P1;HPM_P2
2023/07/30 00:01:59;;;;;;;1.40;1.30;;;;;;;14.56;87.29;100860.50;5056786;28;20021;-83
2023/07/30 00:04:24;;;;;;;2.20;1.77;;;;;;;14.51;88.50;100856.25;5056282;28;20025;-83
2023/07/30 00:06:50;;;;;;;2.07;1.73;;;;;;;14.50;87.96;100862.38;5056755;28;20025;-83
2023/07/30 00:09:15;;;;;;;1.60;1.50;;;;;;;14.49;88.04;100868.50;5055456;28;20033;-83
2023/07/30 00:11:41;;;;;;;1.40;1.30;;;;;;;14.43;87.90;100863.47;5056819;28;20358;-83
2023/07/30 00:14:06;;;;;;;1.70;1.60;;;;;;;14.43;88.55;100860.00;5056264;28;20021;-83
2023/07/30 00:16:31;;;;;;;2.13;1.30;;;;;;;14.42;87.94;100866.13;5055664;28;20036;-83
2023/07/30 00:19:17;;;;;;;2.20;1.70;;;;;;;14.31;88.99;100854.25;5057046;28;20032;-83
2023/07/30 00:21:46;;;;;;;2.25;1.70;;;;;;;14.33;88.92;100849.00;5056333;28;20115;-83
2023/07/30 00:24:17;;;;;;;1.63;1.52;;;;;;;14.23;88.89;100834.53;5043268;28;20029;-83
2023/07/30 00:26:42;;;;;;;2.00;1.35;;;;;;;14.35;88.40;100855.03;5055974;28;20048;-83
2023/07/30 00:29:14;;;;;;;1.63;1.53;;;;;;;14.33;89.22;100865.50;5056299;28;20021;-83
2023/07/30 00:31:39;;;;;;;1.77;1.67;;;;;;;14.32;89.38;100860.34;5056707;28;20116;-83
2023/07/30 00:34:05;;;;;;;1.60;1.43;;;;;;;14.30;89.21;100864.75;5055900;28;20112;-83
2023/07/30 00:36:30;;;;;;;1.57;1.47;;;;;;;14.31;89.02;100866.47;5055556;28;20203;-83
2023/07/30 00:38:55;;;;;;;3.07;1.90;;;;;;;14.28;88.92;100871.78;5056197;28;20037;-82
2023/07/30 00:41:21;;;;;;;1.63;1.40;;;;;;;14.28;88.79;100866.56;5055595;28;20029;-83
2023/07/30 00:43:46;;;;;;;1.40;1.30;;;;;;;14.28;88.54;100866.56;5055448;28;20029;-83
2023/07/30 00:46:30;;;;;;;1.67;1.50;;;;;;;14.22;89.94;100864.97;5055214;28;20025;-83
2023/07/30 00:48:56;;;;;;;2.30;1.67;;;;;;;14.19;89.01;100870.28;5055553;28;20487;-82
2023/07/30 00:51:22;;;;;;;1.00;1.00;;;;;;;14.15;89.41;100866.09;5054267;28;20480;-83
2023/07/30 00:53:48;;;;;;;1.67;1.20;;;;;;;14.14;89.60;100874.81;5055892;28;20021;-83
2023/07/30 00:56:16;;;;;;;2.20;1.40;;;;;;;14.13;90.03;100878.31;5055191;28;20409;-83
2023/07/30 00:58:43;;;;;;;1.60;1.40;;;;;;;14.06;90.01;100880.25;5055169;28;20025;-83
2023/07/30 01:01:09;;;;;;;1.70;1.60;;;;;;;14.07;89.84;100881.97;5053803;28;20111;-83
2023/07/30 01:03:34;;;;;;;1.30;1.20;;;;;;;14.03;89.83;100875.09;5055514;28;20062;-83
2023/07/30 01:06:00;;;;;;;2.13;1.67;;;;;;;14.01;90.76;100880.38;5054685;28;20080;-82
2023/07/30 01:08:25;;;;;;;1.40;1.30;;;;;;;14.05;89.75;100887.25;5054427;28;20078;-83
2023/07/30 01:10:51;;;;;;;2.27;1.40;;;;;;;14.01;90.51;100885.59;5055137;28;20029;-83
2023/07/30 01:13:17;;;;;;;2.30;1.57;;;;;;;14.02;90.41;100894.28;5053972;28;20025;-83
2023/07/30 01:15:43;;;;;;;1.52;1.40;;;;;;;14.03;90.43;100898.59;5055335;28;20098;-83
2023/07/30 01:18:09;;;;;;;1.10;1.10;;;;;;;14.00;90.22;100902.16;5054521;28;20027;-82
2023/07/30 01:20:41;;;;;;;1.57;1.47;;;;;;;13.95;90.69;100896.22;5054275;28;20033;-83
2023/07/30 01:23:07;;;;;;;1.70;1.60;;;;;;;13.97;91.71;100902.22;5054570;28;20032;-83
2023/07/30 01:25:36;;;;;;;2.77;2.00;;;;;;;13.94;91.77;100904.09;5054104;28;20323;-83
2023/07/30 01:28:04;;;;;;;3.25;2.00;;;;;;;13.92;92.12;100898.03;5055007;28;20045;-83
2023/07/30 01:30:49;;;;;;;3.45;2.15;;;;;;;13.89;92.81;100901.59;5055166;28;20029;-83
2023/07/30 01:33:15;;;;;;;3.85;2.00;;;;;;;13.88;92.96;100908.59;5054047;28;20036;-83
2023/07/30 01:35:42;;;;;;;4.03;2.20;;;;;;;13.87;93.93;100912.09;5055034;28;20033;-83
2023/07/30 01:38:09;;;;;;;2.85;2.08;;;;;;;13.87;92.92;100912.09;5054304;28;20384;-83
2023/07/30 01:40:37;;;;;;;3.38;2.00;;;;;;;13.79;92.66;100901.00;5053846;28;20028;-82
2023/07/30 01:43:02;;;;;;;2.10;1.90;;;;;;;13.79;92.77;100894.94;5048537;28;20171;-83
2023/07/30 01:45:37;;;;;;;3.43;2.17;;;;;;;13.87;93.53;100917.31;5054212;28;20442;-83
2023/07/30 01:48:02;;;;;;;5.15;2.10;;;;;;;13.88;94.85;100910.31;5053252;28;20068;-82
2023/07/30 01:50:28;;;;;;;5.40;2.20;;;;;;;13.85;94.21;100913.00;5053947;28;20476;-83
2023/07/30 01:52:53;;;;;;;2.63;2.03;;;;;;;13.85;93.82;100915.63;5054194;28;20036;-82
2023/07/30 01:55:18;;;;;;;2.43;2.20;;;;;;;13.84;95.51;100916.56;5052770;28;20029;-83
2023/07/30 01:57:43;;;;;;;4.30;2.20;;;;;;;13.81;93.61;100916.63;5053896;28;20473;-83
2023/07/30 02:00:12;;;;;;;3.17;2.00;;;;;;;13.82;94.71;100919.19;5053920;28;20370;-83
2023/07/30 02:02:37;;;;;;;2.53;2.10;;;;;;;13.82;94.13;100920.94;5053329;28;20036;-82
2023/07/30 02:05:02;;;;;;;2.27;2.07;;;;;;;13.83;94.02;100922.66;5053936;28;20481;-82
2023/07/30 02:07:28;;;;;;;3.33;1.97;;;;;;;13.83;94.23;100917.44;5054126;28;20100;-83
2023/07/30 02:09:53;;;;;;;3.53;1.97;;;;;;;13.81;94.98;100924.44;5051988;28;20037;-82
2023/07/30 02:12:18;;;;;;;3.77;2.20;;;;;;;13.75;94.75;100907.22;5052979;28;20024;-83
2023/07/30 02:14:44;;;;;;;2.13;1.80;;;;;;;13.78;95.13;100919.31;5053155;28;20021;-83
2023/07/30 02:17:09;;;;;;;3.17;2.10;;;;;;;13.75;95.05;100915.03;5053425;28;20102;-83
2023/07/30 02:19:34;;;;;;;2.50;1.90;;;;;;;13.77;94.17;100914.97;5053374;28;20033;-83
2023/07/30 02:22:00;;;;;;;2.23;1.87;;;;;;;13.79;95.82;100921.03;5052459;28;20120;-83
2023/07/30 02:24:25;;;;;;;2.73;2.00;;;;;;;13.77;95.47;100912.38;5053289;28;20039;-83
2023/07/30 02:26:50;;;;;;;2.17;1.60;;;;;;;13.78;94.81;100906.25;5053819;28;20051;-83
2023/07/30 02:29:15;;;;;;;2.17;1.80;;;;;;;13.85;95.22;100913.00;5052433;28;20381;-83
2023/07/30 02:31:43;;;;;;;3.20;2.10;;;;;;;13.87;95.30;100903.41;5053396;28;20079;-83
2023/07/30 02:34:09;;;;;;;3.35;1.88;;;;;;;13.88;95.26;100905.09;5053132;28;20017;-82
2023/07/30 02:36:34;;;;;;;1.80;1.70;;;;;;;13.92;94.65;100908.47;5052450;28;20079;-82
2023/07/30 02:38:59;;;;;;;2.87;1.87;;;;;;;13.95;94.87;100903.19;5053404;28;20025;-83
2023/07/30 02:41:24;;;;;;;1.60;1.50;;;;;;;13.97;95.13;100907.44;5052961;28;20025;-83
2023/07/30 02:43:53;;;;;;;2.80;2.10;;;;;;;13.92;95.62;100893.69;5052529;28;20028;-83
2023/07/30 02:46:18;;;;;;;6.22;2.20;;;;;;;14.00;97.02;100903.91;5052978;28;20017;-83
2023/07/30 02:48:43;;;;;;;3.03;2.20;;;;;;;14.01;96.01;100909.09;5052710;28;20374;-83
2023/07/30 02:51:10;;;;;;;3.53;2.20;;;;;;;14.03;96.23;100894.25;5052033;28;20079;-83
2023/07/30 02:53:35;;;;;;;2.13;1.90;;;;;;;14.06;95.16;100914.16;5053098;28;20025;-83
2023/07/30 02:56:00;;;;;;;2.97;1.87;;;;;;;14.08;95.60;100901.06;5052727;28;20045;-82
2023/07/30 02:58:26;;;;;;;4.40;2.20;;;;;;;14.14;97.21;100906.13;5051861;28;20021;-83
2023/07/30 03:00:51;;;;;;;3.53;2.33;;;;;;;14.14;96.93;100901.75;5053161;28;20033;-83
2023/07/30 03:03:16;;;;;;;3.23;2.10;;;;;;;14.16;95.66;100910.41;5052569;28;20405;-83
2023/07/30 03:05:42;;;;;;;5.13;2.43;;;;;;;14.20;97.15;100904.19;5051907;28;20032;-83
2023/07/30 03:08:08;;;;;;;4.40;2.13;;;;;;;14.22;96.32;100901.53;5052712;28;20048;-83
2023/07/30 03:10:33;;;;;;;4.20;2.40;;;;;;;14.24;96.40;100902.34;5052765;28;20291;-82
2023/07/30 03:12:58;;;;;;;3.83;2.30;;;;;;;14.26;96.46;100905.78;5052057;28;20033;-83
2023/07/30 03:15:23;;;;;;;4.50;2.40;;;;;;;14.28;97.51;100903.97;5052324;28;20021;-83
2023/07/30 03:17:49;;;;;;;5.50;2.33;;;;;;;14.28;96.48;100903.97;5052532;28;20029;-83
2023/07/30 03:20:14;;;;;;;4.87;2.60;;;;;;;14.32;96.83;100907.34;5051360;28;20025;-83
2023/07/30 03:22:40;;;;;;;3.60;2.23;;;;;;;14.33;97.42;100912.50;5052265;28;20075;-83
2023/07/30 03:25:05;;;;;;;3.87;2.40;;;;;;;14.31;97.25;100909.06;5050038;28;20115;-82
2023/07/30 03:27:30;;;;;;;3.03;2.40;;;;;;;14.30;97.00;100904.75;5052473;28;20064;-83
2023/07/30 03:29:59;;;;;;;3.73;2.30;;;;;;;14.32;98.75;100909.94;5052731;28;20489;-84
2023/07/30 03:32:24;;;;;;;3.17;2.40;;;;;;;14.34;96.81;100913.38;5051620;28;20021;-83
2023/07/30 03:34:50;;;;;;;3.90;2.30;;;;;;;14.34;97.33;100909.00;5052429;28;20103;-83
2023/07/30 03:37:15;;;;;;;2.90;1.80;;;;;;;14.37;97.09;100915.88;5052441;28;20043;-83
2023/07/30 03:39:40;;;;;;;4.60;2.33;;;;;;;14.27;97.47;100897.03;5052121;28;20104;-83
2023/07/30 03:42:06;;;;;;;4.30;2.20;;;;;;;14.40;99.06;100917.56;5051802;28;20055;-83
2023/07/30 03:44:31;;;;;;;2.90;2.10;;;;;;;14.41;98.02;100921.88;5052514;28;20025;-83
2023/07/30 03:46:56;;;;;;;4.90;2.40;;;;;;;14.39;98.01;100915.84;5051485;28;20055;-83
2023/07/30 03:49:22;;;;;;;2.97;2.10;;;;;;;14.42;97.81;100926.19;5052067;28;20032;-83
2023/07/30 03:51:48;;;;;;;3.87;2.10;;;;;;;14.43;97.66;100928.75;5052471;28;20040;-83
2023/07/30 03:54:13;;;;;;;;;;;;;;;14.44;97.96;100927.00;5051661;28;20484;-83
2023/07/30 03:56:39;;;;;;;1.93;1.83;;;;;;;14.43;97.16;100938.34;5052509;28;19912;-83
2023/07/30 03:59:04;;;;;;;4.47;2.20;;;;;;;14.44;97.95;100930.47;5051834;28;20045;-83
2023/07/30 04:01:30;;;;;;;4.17;2.37;;;;;;;14.42;97.27;100927.03;5051169;28;20066;-83
2023/07/30 04:03:55;;;;;;;4.70;2.20;;;;;;;14.45;98.51;100928.69;5052029;28;20021;-84
2023/07/30 04:06:21;;;;;;;4.07;2.30;;;;;;;14.47;97.82;100938.19;5051939;28;20108;-83
2023/07/30 04:08:46;;;;;;;6.27;2.30;;;;;;;14.42;98.04;100932.28;5051511;28;20073;-83
2023/07/30 04:11:11;;;;;;;3.43;2.00;;;;;;;14.45;98.09;100928.69;5051447;28;20504;-83
2023/07/30 04:13:37;;;;;;;3.17;1.90;;;;;;;14.48;97.66;100931.22;5052375;28;20044;-83
2023/07/30 04:16:02;;;;;;;2.77;1.70;;;;;;;14.49;97.27;100936.41;5051469;28;20512;-83
2023/07/30 04:18:27;;;;;;;2.33;1.90;;;;;;;14.51;98.25;100936.38;5052108;28;20032;-84
2023/07/30 04:20:56;;;;;;;5.37;2.23;;;;;;;14.48;98.04;100936.44;5052280;28;20025;-83
2023/07/30 04:23:21;;;;;;;8.05;3.28;;;;;;;14.48;98.27;100937.28;5051492;28;20404;-83
2023/07/30 04:25:49;;;;;;;4.80;2.63;;;;;;;14.49;97.97;100943.38;5052158;28;20047;-83
2023/07/30 04:28:15;;;;;;;10.20;3.30;;;;;;;14.47;98.62;100938.19;5051674;28;20171;-83
2023/07/30 04:30:40;;;;;;;6.30;2.80;;;;;;;14.47;98.84;100942.56;5051308;28;20128;-83
2023/07/30 04:33:05;;;;;;;5.97;3.10;;;;;;;14.51;98.63;100944.22;5051939;28;20037;-83
2023/07/30 04:35:33;;;;;;;6.87;2.87;;;;;;;14.51;98.70;100936.38;5052996;28;20200;-83
2023/07/30 04:37:58;;;;;;;5.38;2.40;;;;;;;14.53;98.60;100934.53;5055529;28;20024;-83
2023/07/30 04:40:24;;;;;;;6.10;2.83;;;;;;;14.54;99.84;100938.88;5055680;28;20021;-83
2023/07/30 04:42:49;;;;;;;4.77;2.40;;;;;;;14.58;99.04;100930.03;5054512;28;20481;-83
2023/07/30 04:45:14;;;;;;;2.73;2.23;;;;;;;14.58;98.18;100934.44;5055275;28;20017;-83
2023/07/30 04:47:40;;;;;;;3.47;2.40;;;;;;;14.63;98.54;100938.59;5054991;28;20100;-83
2023/07/30 04:50:05;;;;;;;4.33;2.60;;;;;;;14.62;98.65;100923.84;5054300;28;20126;-83
2023/07/30 04:52:31;;;;;;;9.03;3.40;;;;;;;14.68;98.83;100928.06;5055510;28;20102;-83
2023/07/30 04:54:56;;;;;;;7.07;2.90;;;;;;;14.71;99.76;100933.16;5055409;28;20188;-83
2023/07/30 04:57:22;;;;;;;5.07;2.67;;;;;;;14.70;98.25;100928.81;5054078;28;20574;-83
2023/07/30 04:59:47;;;;;;;4.37;2.60;;;;;;;14.78;98.82;100934.69;5054624;28;20044;-83
2023/07/30 05:02:12;;;;;;;4.70;2.73;;;;;;;14.83;98.75;100942.38;5054872;28;20033;-83
2023/07/30 05:04:38;;;;;;;3.70;2.70;;;;;;;14.87;98.94;100941.38;5054468;28;20531;-83
2023/07/30 05:07:04;;;;;;;2.77;2.40;;;;;;;14.89;98.07;100942.19;5055119;28;20108;-83
2023/07/30 05:09:29;;;;;;;3.40;2.17;;;;;;;14.98;99.20;100956.72;5054924;28;20055;-83
2023/07/30 05:11:54;;;;;;;6.13;3.13;;;;;;;14.97;98.24;100950.63;5054382;28;20036;-83
2023/07/30 05:14:19;;;;;;;3.17;2.30;;;;;;;15.03;97.94;100961.78;5054364;28;20533;-83
2023/07/30 05:16:45;;;;;;;4.10;2.27;;;;;;;15.06;98.10;100954.69;5054768;28;20036;-83
2023/07/30 05:19:10;;;;;;;2.60;2.30;;;;;;;15.07;98.00;100964.25;5053930;28;20111;-83
2023/07/30 05:21:36;;;;;;;5.87;2.30;;;;;;;15.08;98.40;100963.34;5054698;28;20036;-82
2023/07/30 05:24:01;;;;;;;4.50;2.43;;;;;;;15.07;98.32;100966.03;5054802;28;20033;-83
2023/07/30 05:26:26;;;;;;;3.97;2.53;;;;;;;15.09;98.22;100961.59;5053385;28;20485;-83
2023/07/30 05:28:51;;;;;;;8.40;3.10;;;;;;;15.10;98.15;100973.75;5054715;28;20121;-83
2023/07/30 05:31:17;;;;;;;5.13;2.60;;;;;;;15.10;98.53;100968.53;5054226;28;20116;-83
2023/07/30 05:33:42;;;;;;;6.00;2.93;;;;;;;15.10;98.55;100968.53;5054064;28;20036;-83
2023/07/30 05:36:07;;;;;;;6.00;2.80;;;;;;;15.13;98.66;100965.81;5054707;28;20025;-83
2023/07/30 05:38:33;;;;;;;8.13;3.10;;;;;;;15.09;98.90;100954.59;5054718;28;20033;-83
2023/07/30 05:40:58;;;;;;;5.13;3.00;;;;;;;15.11;98.64;100962.38;5052968;28;20521;-82
2023/07/30 05:43:23;;;;;;;5.90;2.60;;;;;;;15.17;98.71;100964.81;5054101;28;20044;-81
2023/07/30 05:45:49;;;;;;;4.03;2.10;;;;;;;15.18;98.32;100956.06;5053269;28;20037;-81
2023/07/30 05:48:14;;;;;;;4.27;2.50;;;;;;;15.25;99.69;100961.97;5053637;28;20035;-82
2023/07/30 05:50:39;;;;;;;4.83;2.50;;;;;;;15.25;99.00;100962.81;5053940;28;20036;-82
2023/07/30 05:53:06;;;;;;;3.93;2.60;;;;;;;15.29;98.94;100964.44;5053168;28;20036;-82
2023/07/30 05:55:31;;;;;;;;;;;;;;;15.31;98.36;100963.53;5054699;28;20033;-82
2023/07/30 05:57:58;;;;;;;6.63;2.67;;;;;;;15.36;99.05;100966.81;5053837;28;20277;-82
2023/07/30 06:00:24;;;;;;;4.65;2.50;;;;;;;15.37;99.16;100963.31;5053141;28;20469;-82
2023/07/30 06:02:49;;;;;;;9.27;3.30;;;;;;;15.45;98.52;100971.75;5053869;28;20032;-83
2023/07/30 06:05:15;;;;;;;7.37;3.30;;;;;;;15.41;98.90;100963.16;5053373;28;20721;-83
2023/07/30 06:07:41;;;;;;;6.70;3.13;;;;;;;15.51;98.39;100973.28;5053150;28;20551;-83
2023/07/30 06:10:07;;;;;;;4.83;3.10;;;;;;;15.59;99.18;100969.50;5053206;28;20029;-83
2023/07/30 06:12:35;;;;;;;5.13;2.83;;;;;;;15.64;98.70;100973.75;5053492;28;20037;-83
2023/07/30 06:15:00;;;;;;;4.28;2.60;;;;;;;15.70;98.79;100976.13;5052760;28;20013;-83
2023/07/30 06:17:25;;;;;;;4.90;2.40;;;;;;;15.73;98.36;100971.66;5053575;28;20036;-83
2023/07/30 06:19:51;;;;;;;6.90;2.80;;;;;;;15.82;98.21;100967.88;5053838;28;20056;-83
2023/07/30 06:22:16;;;;;;;3.90;2.50;;;;;;;15.86;98.47;100972.13;5052697;28;20017;-83
2023/07/30 06:24:41;;;;;;;8.20;3.20;;;;;;;15.86;97.94;100974.75;5053459;28;20029;-83
2023/07/30 06:27:09;;;;;;;8.20;3.30;;;;;;;15.82;97.59;100967.03;5053009;28;20040;-84
2023/07/30 06:29:34;;;;;;;11.60;3.63;;;;;;;15.79;97.02;100973.19;5052979;28;20067;-82
2023/07/30 06:32:02;;;;;;;8.80;3.70;;;;;;;15.81;97.45;100976.63;5053504;28;20025;-82
2023/07/30 06:34:28;;;;;;;5.10;2.90;;;;;;;15.85;98.05;100975.66;5053161;28;20477;-83
2023/07/30 06:36:54;;;;;;;7.60;3.43;;;;;;;15.85;97.58;100974.78;5052789;28;20059;-82
2023/07/30 06:39:19;;;;;;;6.17;3.00;;;;;;;15.95;97.35;100975.31;5053211;28;20111;-82
2023/07/30 06:41:44;;;;;;;3.57;2.43;;;;;;;15.99;97.66;100976.91;5053099;28;20057;-83
2023/07/30 06:44:10;;;;;;;5.30;2.60;;;;;;;16.11;97.73;100975.63;5051450;28;20112;-82
2023/07/30 06:46:35;;;;;;;4.10;2.60;;;;;;;16.14;96.91;100971.13;5053361;28;20108;-83
2023/07/30 06:49:00;;;;;;;4.40;2.77;;;;;;;16.25;96.54;100977.72;5052877;28;20031;-83
2023/07/30 06:51:26;;;;;;;7.47;3.20;;;;;;;16.47;97.19;100973.38;5052982;28;20017;-85
2023/07/30 06:53:52;;;;;;;8.48;3.10;;;;;;;16.76;96.05;100968.81;5053192;28;20377;-86
2023/07/30 06:56:18;;;;;;;10.27;3.38;;;;;;;17.13;94.60;100967.34;5052175;28;20025;-83
2023/07/30 06:58:43;;;;;;;8.90;3.30;;;;;;;17.30;93.77;100984.16;5052542;28;20043;-83
2023/07/30 07:01:08;;;;;;;4.60;2.70;;;;;;;17.32;94.09;100982.34;5052493;28;20416;-83
2023/07/30 07:03:34;;;;;;;8.10;3.10;;;;;;;17.35;92.56;100981.34;5051734;28;20032;-83
2023/07/30 07:06:01;;;;;;;7.93;3.00;;;;;;;17.36;92.60;100985.69;5052857;28;20020;-86
2023/07/30 07:08:27;;;;;;;9.77;3.20;;;;;;;17.42;92.36;100988.91;5052293;28;20025;-84
2023/07/30 07:10:52;;;;;;;5.55;2.80;;;;;;;17.51;92.48;100985.00;5052058;28;20053;-84
2023/07/30 07:13:18;;;;;;;8.57;3.00;;;;;;;17.63;91.43;100988.03;5052454;28;20115;-84
2023/07/30 07:15:44;;;;;;;7.87;2.77;;;;;;;17.67;91.34;100987.00;5052518;28;20051;-84
2023/07/30 07:18:10;;;;;;;6.15;3.20;;;;;;;17.74;90.16;100994.56;5052067;28;20028;-84
2023/07/30 07:20:36;;;;;;;8.63;2.92;;;;;;;17.93;90.95;101006.03;5052881;28;20025;-84
2023/07/30 07:23:01;;;;;;;5.68;2.80;;;;;;;18.02;90.88;100998.63;5052952;28;20497;-84
2023/07/30 07:25:26;;;;;;;7.73;2.83;;;;;;;18.12;89.75;100983.31;5051737;28;20429;-82
2023/07/30 07:27:52;;;;;;;8.00;2.83;;;;;;;18.31;88.37;100993.84;5051838;28;20041;-83
2023/07/30 07:30:17;;;;;;;8.83;2.83;;;;;;;18.34;88.92;101004.22;5050847;28;20481;-83
2023/07/30 07:32:43;;;;;;;9.50;2.77;;;;;;;18.46;87.48;101004.59;5051467;28;20043;-83
2023/07/30 07:35:08;;;;;;;6.73;2.70;;;;;;;18.54;88.15;100999.81;5042913;28;20112;-83
2023/07/30 07:37:34;;;;;;;11.20;3.17;;;;;;;18.66;85.97;100993.13;5035111;28;20060;-82
2023/07/30 07:39:59;;;;;;;8.93;2.80;;;;;;;18.56;85.84;100984.84;5031860;28;20520;-83
2023/07/30 07:42:24;;;;;;;12.13;3.40;;;;;;;18.57;86.20;100998.81;5031621;28;20034;-83
2023/07/30 07:44:50;;;;;;;4.77;2.67;;;;;;;18.58;87.80;101006.63;5032523;28;20060;-83
2023/07/30 07:47:15;;;;;;;5.37;2.20;;;;;;;18.62;87.45;101013.47;5045627;28;20033;-84
2023/07/30 07:49:41;;;;;;;4.33;2.23;;;;;;;18.47;86.71;101009.75;5050933;28;20029;-83
2023/07/30 07:52:06;;;;;;;4.33;1.87;;;;;;;18.36;87.23;101012.03;5052387;28;20535;-84
2023/07/30 07:54:32;;;;;;;6.17;2.40;;;;;;;18.19;86.82;101011.00;5050776;28;20426;-83
2023/07/30 07:57:00;;;;;;;8.77;2.73;;;;;;;18.11;86.53;101007.88;5052264;28;20108;-83
2023/07/30 07:59:27;;;;;;;5.95;2.30;;;;;;;18.13;87.05;101007.78;5051033;28;20041;-84
2023/07/30 08:01:53;;;;;;;8.20;2.35;;;;;;;18.27;86.57;101012.44;5052287;28;20037;-89
2023/07/30 08:04:27;;;;;;;6.20;2.10;;;;;;;18.31;87.33;101006.13;5052090;28;20063;-88
2023/07/30 08:06:52;;;;;;;4.30;2.00;;;;;;;18.39;87.04;101014.53;5051669;28;20044;-84
2023/07/30 08:09:17;;;;;;;7.77;2.60;;;;;;;18.36;86.13;101012.03;5051187;28;20493;-83
2023/07/30 08:11:44;;;;;;;5.17;2.60;;;;;;;18.41;86.63;101015.28;5054270;28;20051;-83
2023/07/30 08:14:09;;;;;;;5.65;2.13;;;;;;;18.46;86.85;101022.97;5055119;28;20051;-84
2023/07/30 08:16:35;;;;;;;6.30;2.27;;;;;;;18.44;85.07;101024.81;5056034;28;20064;-84
2023/07/30 08:19:00;;;;;;;7.17;2.20;;;;;;;18.46;86.20;101023.81;5056101;28;20116;-85
2023/07/30 08:21:25;;;;;;;5.87;2.17;;;;;;;18.49;85.51;101017.56;5055252;28;20014;-83
2023/07/30 08:23:51;;;;;;;7.00;2.27;;;;;;;18.57;85.31;101025.09;5055915;28;20385;-83
2023/07/30 08:26:19;;;;;;;5.40;2.10;;;;;;;18.58;85.29;101030.28;5055438;28;20198;-83
2023/07/30 08:28:44;;;;;;;3.67;1.95;;;;;;;18.50;85.04;101021.91;5055308;28;20063;-84
2023/07/30 08:31:09;;;;;;;8.37;2.30;;;;;;;18.44;83.19;101030.91;5055636;28;20048;-84
2023/07/30 08:33:35;;;;;;;5.63;2.47;;;;;;;18.34;83.15;101027.00;5056005;28;20025;-84
2023/07/30 08:36:00;;;;;;;9.43;2.63;;;;;;;18.28;84.50;101038.63;5054909;28;20028;-84
2023/07/30 08:38:26;;;;;;;6.27;2.40;;;;;;;18.17;84.50;101020.75;5055387;28;20028;-84
2023/07/30 08:40:51;;;;;;;6.57;2.50;;;;;;;18.16;85.10;101023.41;5055502;28;20120;-83
2023/07/30 08:43:18;;;;;;;9.00;3.10;;;;;;;18.06;82.37;101005.44;5054896;28;20049;-84
2023/07/30 08:45:47;;;;;;;7.57;2.65;;;;;;;18.04;83.86;101024.84;5055608;28;20358;-83
2023/07/30 08:48:13;;;;;;;7.95;2.70;;;;;;;18.01;84.01;101017.91;5055197;28;20029;-84
2023/07/30 08:50:39;;;;;;;6.63;2.30;;;;;;;18.00;85.14;101023.25;5054564;28;20044;-83
2023/07/30 08:53:06;;;;;;;5.20;2.15;;;;;;;18.03;84.31;101023.13;5055241;28;20314;-83
2023/07/30 08:55:34;;;;;;;3.72;2.28;;;;;;;18.03;85.31;101031.00;5055210;28;20104;-84
2023/07/30 08:58:03;;;;;;;6.97;2.40;;;;;;;17.99;84.22;101032.91;5055229;28;20388;-83
2023/07/30 09:00:33;;;;;;;4.60;2.17;;;;;;;17.98;85.59;101033.84;5055430;28;20033;-83
2023/07/30 09:03:02;;;;;;;5.75;1.90;;;;;;;17.89;84.81;101029.78;5054817;28;20025;-83
2023/07/30 09:05:29;;;;;;;4.70;2.03;;;;;;;17.80;86.98;101018.81;5055313;28;20029;-84
2023/07/30 09:07:55;;;;;;;4.90;2.08;;;;;;;17.82;88.20;101024.84;5054997;28;20025;-83
2023/07/30 09:10:21;;;;;;;;;;;;;;;17.84;86.39;101023.03;5054448;28;20327;-84
2023/07/30 09:12:53;;;;;;;5.73;2.33;;;;;;;17.85;87.90;101027.38;5055086;28;20042;-83
2023/07/30 09:15:19;;;;;;;3.30;2.00;;;;;;;17.99;87.66;101025.03;5054877;28;20024;-83
2023/07/30 09:17:48;;;;;;;2.65;1.77;;;;;;;18.35;89.29;101034.81;5053742;28;20029;-84
2023/07/30 09:20:13;;;;;;;6.00;2.22;;;;;;;18.77;88.61;101032.06;5054665;28;20029;-84
2023/07/30 09:22:40;;;;;;;6.73;2.30;;;;;;;19.11;87.13;101028.72;5053572;28;20417;-83
2023/07/30 09:25:07;;;;;;;5.18;2.20;;;;;;;19.48;84.75;101025.22;5053174;28;20028;-84
2023/07/30 09:27:32;;;;;;;;;;;;;;;19.84;84.04;101021.66;5055588;28;20528;-85
2023/07/30 09:30:04;;;;;;;7.10;2.43;;;;;;;20.01;82.65;101026.06;5055084;28;20015;-83
2023/07/30 09:32:31;;;;;;;4.93;2.00;;;;;;;20.22;82.67;101018.78;5053772;28;20028;-84
2023/07/30 09:35:05;;;;;;;2.92;2.00;;;;;;;20.35;79.82;101014.56;5054422;28;20032;-84
2023/07/30 09:37:31;;;;;;;6.03;2.15;;;;;;;20.45;78.55;101020.22;5054637;28;20104;-84
2023/07/30 09:39:57;;;;;;;5.13;2.40;;;;;;;20.55;79.27;101014.44;5053528;28;20155;-84
2023/07/30 09:42:29;;;;;;;6.50;2.65;;;;;;;20.65;73.94;101013.88;5054211;28;20044;-83
2023/07/30 09:44:59;;;;;;;4.78;2.10;;;;;;;20.61;77.86;101009.69;5053409;28;20028;-84
2023/07/30 09:47:26;;;;;;;7.75;2.40;;;;;;;20.47;76.22;101021.00;5053972;28;20500;-84
2023/07/30 09:49:53;;;;;;;4.63;2.20;;;;;;;20.36;73.32;101039.16;5054040;28;20037;-84
2023/07/30 09:52:18;;;;;;;;;;;;;;;20.31;75.03;101020.09;5053790;28;20021;-85
2023/07/30 09:54:44;;;;;;;;;;;;;;;20.43;75.00;101032.63;5054681;28;20383;-84
2023/07/30 09:57:09;;;;;;;5.43;1.93;;;;;;;20.51;74.79;101026.94;5054276;28;19935;-83
2023/07/30 09:59:34;;;;;;;4.60;1.80;;;;;;;20.53;73.53;101035.63;5053232;28;20021;-84
2023/07/30 10:02:01;;;;;;;3.13;1.80;;;;;;;20.46;75.52;101043.00;5054005;28;20021;-83
2023/07/30 10:04:28;;;;;;;4.57;1.80;;;;;;;20.41;75.10;101031.00;5053560;28;20473;-83
2023/07/30 10:07:07;;;;;;;2.08;1.60;;;;;;;20.43;75.67;101037.06;5053262;28;20036;-83
2023/07/30 10:09:43;;;;;;;4.50;2.10;;;;;;;20.44;74.02;101030.81;5054031;28;20032;-84
2023/07/30 10:12:10;;;;;;;4.40;1.90;;;;;;;20.40;72.13;101047.75;5053542;28;20029;-84
2023/07/30 10:14:35;;;;;;;5.45;2.05;;;;;;;20.26;70.17;101043.22;5052930;28;20029;-84
2023/07/30 10:17:01;;;;;;;3.90;1.70;;;;;;;20.09;70.55;101047.59;5054434;28;20108;-84
2023/07/30 10:19:31;;;;;;;3.05;1.50;;;;;;;19.98;73.82;101036.75;5053775;28;20017;-84
2023/07/30 10:22:12;;;;;;;2.97;1.73;;;;;;;19.90;73.69;101051.19;5053202;28;20035;-83
2023/07/30 10:24:40;;;;;;;3.47;1.63;;;;;;;19.83;73.49;101057.66;5053696;28;20396;-84
2023/07/30 10:27:12;;;;;;;3.10;1.60;;;;;;;19.82;72.92;101065.63;5052486;28;20075;-84
2023/07/30 10:29:41;;;;;;;3.80;1.70;;;;;;;19.78;73.30;101075.47;5053459;28;20032;-83
2023/07/30 10:32:09;;;;;;;4.03;1.70;;;;;;;19.60;73.38;101091.25;5053548;28;20040;-83
2023/07/30 10:34:47;;;;;;;4.13;2.00;;;;;;;19.32;74.24;101081.22;5052643;28;20143;-83
2023/07/30 10:37:20;;;;;;;2.83;1.50;;;;;;;19.23;74.77;101094.81;5053287;28;20028;-82
2023/07/30 10:39:49;;;;;;;3.47;1.90;;;;;;;19.09;74.70;101106.00;5053217;28;20025;-83
2023/07/30 10:42:14;;;;;;;3.95;1.70;;;;;;;18.91;75.74;101099.78;5052586;28;20147;-83
2023/07/30 10:44:44;;;;;;;4.93;2.00;;;;;;;18.75;76.31;101089.13;5053444;28;20092;-83
2023/07/30 10:47:10;;;;;;;3.28;1.67;;;;;;;18.70;77.40;101089.34;5052945;28;20091;-83
2023/07/30 10:49:37;;;;;;;2.47;1.30;;;;;;;18.75;77.82;101089.13;5052426;28;20059;-83
2023/07/30 10:52:03;;;;;;;1.25;1.15;;;;;;;18.84;77.92;101093.97;5052953;28;20036;-83
2023/07/30 10:54:36;;;;;;;1.27;1.17;;;;;;;19.01;78.80;101093.22;5053055;28;20096;-83
2023/07/30 10:57:05;;;;;;;1.38;1.17;;;;;;;19.21;78.89;101092.28;5052336;28;20115;-83
2023/07/30 10:59:36;;;;;;;0.93;0.93;;;;;;;19.51;79.29;101082.97;5053259;28;20020;-83
2023/07/30 11:02:02;;;;;;;2.17;1.38;;;;;;;19.87;78.31;101076.84;5053069;28;20033;-83
2023/07/30 11:04:27;;;;;;;3.45;1.60;;;;;;;20.03;77.21;101082.16;5052209;28;20025;-83
2023/07/30 11:06:52;;;;;;;2.70;1.40;;;;;;;20.05;76.93;101075.00;5052654;28;20104;-84
2023/07/30 11:09:27;;;;;;;1.37;1.10;;;;;;;20.05;76.54;101093.44;5052060;28;20037;-84
2023/07/30 11:11:55;;;;;;;2.88;1.40;;;;;;;19.93;76.08;101084.41;5050879;28;20041;-83
2023/07/30 11:14:23;;;;;;;1.13;1.00;;;;;;;19.81;76.67;101082.38;5052526;28;20481;-83
2023/07/30 11:16:58;;;;;;;1.48;1.02;;;;;;;19.82;77.32;101081.44;5051989;28;20033;-84
2023/07/30 11:19:25;;;;;;;2.05;1.23;;;;;;;20.03;75.66;101079.53;5052266;28;20052;-84
2023/07/30 11:21:53;;;;;;;;;;;;;;;20.35;76.09;101084.91;5051489;28;20384;-83
2023/07/30 11:24:19;;;;;;;3.03;1.30;;;;;;;20.66;75.86;101081.47;5050876;28;19913;-84